sensor_id;sensor_type;location;lat;lon;timestamp;pressure;altitude;pressure_sealevel;temperature;humidity
36242;BME280;22283;42.748;12.732;2023-05-10T11:05:46;97523.03;;;18.07;91.03
36242;BME280;22283;42.748;12.732;2023-05-10T11:11:01;97524.69;;;18.08;91.97
36242;BME280;22283;42.748;12.732;2023-05-10T11:16:20;97525.75;;;17.99;92.06
36242;BME280;22283;42.748;12.732;2023-05-10T11:21:21;97524.69;;;18.08;92.05
36242;BME280;22283;42.748;12.732;2023-05-10T11:26:30;97519.97;;;18.18;92.21
36242;BME280;22283;42.748;12.732;2023-05-10T11:31:31;97507.72;;;18.24;92.35
36242;BME280;22283;42.748;12.732;2023-05-10T11:36:34;97509.75;;;18.22;93.18
36242;BME280;22283;42.748;12.732;2023-05-10T11:41:35;97505.72;;;18.26;94.97
36242;BME280;22283;42.748;12.732;2023-05-10T11:46:36;97490.22;;;18.36;93.57
36242;BME280;22283;42.748;12.732;2023-05-10T11:51:37;97489.69;;;18.49;93.46
36242;BME280;22283;42.748;12.732;2023-05-10T11:56:40;97474.50;;;18.10;89.55
36242;BME280;22283;42.748;12.732;2023-05-10T12:01:41;97484.00;;;18.44;93.06
36242;BME280;22283;42.748;12.732;2023-05-10T12:06:42;97478.47;;;18.46;90.51
36242;BME280;22283;42.748;12.732;2023-05-10T12:11:43;97462.91;;;18.41;89.33
36242;BME280;22283;42.748;12.732;2023-05-10T12:16:43;97473.03;;;18.31;91.67
36242;BME280;22283;42.748;12.732;2023-05-10T12:21:44;97460.66;;;18.30;88.52
36242;BME280;22283;42.748;12.732;2023-05-10T12:26:45;97453.22;;;18.40;86.61
36242;BME280;22283;42.748;12.732;2023-05-10T12:31:56;97442.16;;;18.43;87.08
36242;BME280;22283;42.748;12.732;2023-05-10T12:36:58;97455.50;;;18.51;87.30
36242;BME280;22283;42.748;12.732;2023-05-10T12:41:58;97441.16;;;18.44;83.25
36242;BME280;22283;42.748;12.732;2023-05-10T12:46:59;97444.06;;;18.34;85.10
36242;BME280;22283;42.748;12.732;2023-05-10T12:51:59;97447.00;;;18.16;87.71
36242;BME280;22283;42.748;12.732;2023-05-10T12:57:00;97441.41;;;18.03;90.74
36242;BME280;22283;42.748;12.732;2023-05-10T13:02:00;97443.41;;;18.01;94.73
36242;BME280;22283;42.748;12.732;2023-05-10T13:07:01;97437.16;;;17.86;92.93
36242;BME280;22283;42.748;12.732;2023-05-10T13:12:03;97454.16;;;17.45;96.99
36242;BME280;22283;42.748;12.732;2023-05-10T13:17:03;97449.72;;;17.21;100.00
36242;BME280;22283;42.748;12.732;2023-05-10T13:22:04;97442.75;;;17.04;100.00
36242;BME280;22283;42.748;12.732;2023-05-10T13:27:05;97433.22;;;16.93;100.00
36242;BME280;22283;42.748;12.732;2023-05-10T13:32:06;97434.88;;;16.70;100.00
36242;BME280;22283;42.748;12.732;2023-05-10T13:37:06;97440.91;;;16.72;100.00
36242;BME280;22283;42.748;12.732;2023-05-10T13:42:07;97431.06;;;16.64;100.00
36242;BME280;22283;42.748;12.732;2023-05-10T13:47:08;97433.22;;;16.61;100.00
36242;BME280;22283;42.748;12.732;2023-05-10T13:52:08;97423.56;;;16.60;100.00
36242;BME280;22283;42.748;12.732;2023-05-10T13:57:10;97431.91;;;16.73;100.00
36242;BME280;22283;42.748;12.732;2023-05-10T14:02:13;97427.56;;;16.80;100.00
36242;BME280;22283;42.748;12.732;2023-05-10T14:07:13;97432.91;;;16.80;100.00
36242;BME280;22283;42.748;12.732;2023-05-10T14:12:14;97424.22;;;16.78;100.00
36242;BME280;22283;42.748;12.732;2023-05-10T14:17:15;97405.03;;;16.75;100.00
36242;BME280;22283;42.748;12.732;2023-05-10T14:22:15;97418.38;;;16.75;100.00
36242;BME280;22283;42.748;12.732;2023-05-10T14:27:16;97410.38;;;16.75;100.00
36242;BME280;22283;42.748;12.732;2023-05-10T14:32:16;97394.31;;;16.66;100.00
36242;BME280;22283;42.748;12.732;2023-05-10T14:37:17;97397.00;;;16.58;100.00
36242;BME280;22283;42.748;12.732;2023-05-10T14:42:18;97397.31;;;16.47;100.00
36242;BME280;22283;42.748;12.732;2023-05-10T14:47:18;97398.00;;;16.49;100.00
36242;BME280;22283;42.748;12.732;2023-05-10T14:52:19;97404.88;;;16.43;100.00
36242;BME280;22283;42.748;12.732;2023-05-10T14:57:20;97396.34;;;16.40;100.00
36242;BME280;22283;42.748;12.732;2023-05-10T15:02:20;97400.00;;;16.47;100.00
36242;BME280;22283;42.748;12.732;2023-05-10T15:07:21;97395.34;;;16.57;100.00
36242;BME280;22283;42.748;12.732;2023-05-10T15:12:22;97386.66;;;16.63;100.00
36242;BME280;22283;42.748;12.732;2023-05-10T15:17:23;97390.31;;;16.70;100.00
36242;BME280;22283;42.748;12.732;2023-05-10T15:22:23;97395.19;;;16.75;100.00
36242;BME280;22283;42.748;12.732;2023-05-10T15:27:25;97397.00;;;16.91;100.00
36242;BME280;22283;42.748;12.732;2023-05-10T15:32:25;97387.13;;;17.08;100.00
36242;BME280;22283;42.748;12.732;2023-05-10T15:37:26;97391.13;;;17.04;100.00
36242;BME280;22283;42.748;12.732;2023-05-10T15:42:27;97393.25;;;17.25;98.44
36242;BME280;22283;42.748;12.732;2023-05-10T15:47:29;97396.72;;;17.33;97.11
36242;BME280;22283;42.748;12.732;2023-05-10T15:52:30;97377.84;;;17.35;96.00
36242;BME280;22283;42.748;12.732;2023-05-10T15:57:31;97373.00;;;17.38;98.10
36242;BME280;22283;42.748;12.732;2023-05-10T16:02:31;97375.81;;;17.37;97.65
36242;BME280;22283;42.748;12.732;2023-05-10T16:07:32;97375.31;;;17.33;97.09
36242;BME280;22283;42.748;12.732;2023-05-10T16:12:33;97380.25;;;17.13;98.21
36242;BME280;22283;42.748;12.732;2023-05-10T16:17:34;97384.59;;;17.06;100.00
36242;BME280;22283;42.748;12.732;2023-05-10T16:22:34;97359.94;;;16.88;100.00
36242;BME280;22283;42.748;12.732;2023-05-10T16:27:35;97363.13;;;16.67;100.00
36242;BME280;22283;42.748;12.732;2023-05-10T16:32:36;97359.59;;;16.58;100.00
36242;BME280;22283;42.748;12.732;2023-05-10T16:37:37;97362.97;;;16.60;100.00
36242;BME280;22283;42.748;12.732;2023-05-10T16:42:37;97363.97;;;16.51;100.00
36242;BME280;22283;42.748;12.732;2023-05-10T16:47:39;97369.31;;;16.51;100.00
36242;BME280;22283;42.748;12.732;2023-05-10T16:52:40;97375.81;;;16.40;100.00
36242;BME280;22283;42.748;12.732;2023-05-10T16:57:40;97371.00;;;16.36;100.00
36242;BME280;22283;42.748;12.732;2023-05-10T17:02:41;97372.47;;;16.22;100.00
36242;BME280;22283;42.748;12.732;2023-05-10T17:07:42;97350.28;;;16.21;100.00
36242;BME280;22283;42.748;12.732;2023-05-10T17:12:42;97355.44;;;16.23;100.00
36242;BME280;22283;42.748;12.732;2023-05-10T17:17:43;97354.47;;;16.24;100.00
36242;BME280;22283;42.748;12.732;2023-05-10T17:22:44;97362.97;;;16.19;100.00
36242;BME280;22283;42.748;12.732;2023-05-10T17:27:44;97375.63;;;16.09;100.00
36242;BME280;22283;42.748;12.732;2023-05-10T17:32:45;97393.28;;;15.86;100.00
36242;BME280;22283;42.748;12.732;2023-05-10T17:37:45;97388.25;;;15.83;100.00
36242;BME280;22283;42.748;12.732;2023-05-10T17:42:47;97379.09;;;15.85;100.00
36242;BME280;22283;42.748;12.732;2023-05-10T17:47:47;97374.56;;;15.69;100.00
36242;BME280;22283;42.748;12.732;2023-05-10T17:52:48;97378.16;;;15.52;100.00
36242;BME280;22283;42.748;12.732;2023-05-10T17:57:48;97390.78;;;15.42;100.00
36242;BME280;22283;42.748;12.732;2023-05-10T18:02:49;97382.44;;;15.37;100.00
36242;BME280;22283;42.748;12.732;2023-05-10T18:07:50;97389.72;;;15.35;100.00
36242;BME280;22283;42.748;12.732;2023-05-10T18:12:50;97385.69;;;15.22;100.00
36242;BME280;22283;42.748;12.732;2023-05-10T18:17:51;97390.66;;;15.17;100.00
36242;BME280;22283;42.748;12.732;2023-05-10T18:22:52;97383.25;;;15.03;100.00
36242;BME280;22283;42.748;12.732;2023-05-10T18:27:53;97390.06;;;14.97;100.00
36242;BME280;22283;42.748;12.732;2023-05-10T18:32:53;97390.84;;;14.90;100.00
36242;BME280;22283;42.748;12.732;2023-05-10T18:37:54;97401.06;;;14.76;100.00
36242;BME280;22283;42.748;12.732;2023-05-10T18:42:55;97396.22;;;14.72;100.00
36242;BME280;22283;42.748;12.732;2023-05-10T18:47:56;97400.88;;;14.70;100.00
36242;BME280;22283;42.748;12.732;2023-05-10T18:52:57;97396.69;;;14.67;100.00
36242;BME280;22283;42.748;12.732;2023-05-10T18:57:58;97392.31;;;14.58;100.00
36242;BME280;22283;42.748;12.732;2023-05-10T19:02:59;97411.47;;;14.62;100.00
36242;BME280;22283;42.748;12.732;2023-05-10T19:08:00;97411.47;;;14.62;100.00
36242;BME280;22283;42.748;12.732;2023-05-10T19:13:01;97418.28;;;14.64;100.00
36242;BME280;22283;42.748;12.732;2023-05-10T19:18:01;97424.59;;;14.63;100.00
36242;BME280;22283;42.748;12.732;2023-05-10T19:23:02;97416.16;;;14.68;100.00
36242;BME280;22283;42.748;12.732;2023-05-10T19:28:03;97410.00;;;14.67;100.00
36242;BME280;22283;42.748;12.732;2023-05-10T19:33:04;97387.63;;;14.60;100.00
36242;BME280;22283;42.748;12.732;2023-05-10T19:38:04;97403.59;;;14.60;100.00
36242;BME280;22283;42.748;12.732;2023-05-10T19:43:05;97393.50;;;14.46;100.00
36242;BME280;22283;42.748;12.732;2023-05-10T19:48:06;97412.69;;;14.49;100.00
36242;BME280;22283;42.748;12.732;2023-05-10T19:53:09;97431.72;;;14.45;100.00
36242;BME280;22283;42.748;12.732;2023-05-10T19:58:10;97420.66;;;14.32;100.00
36242;BME280;22283;42.748;12.732;2023-05-10T20:03:11;97430.22;;;14.60;100.00
36242;BME280;22283;42.748;12.732;2023-05-10T20:08:11;97447.03;;;14.61;100.00
36242;BME280;22283;42.748;12.732;2023-05-10T20:13:12;97445.56;;;14.48;100.00
36242;BME280;22283;42.748;12.732;2023-05-10T20:18:13;97449.88;;;14.59;100.00
36242;BME280;22283;42.748;12.732;2023-05-10T20:23:15;97443.19;;;14.55;100.00
36242;BME280;22283;42.748;12.732;2023-05-10T20:28:23;97423.00;;;14.52;100.00
36242;BME280;22283;42.748;12.732;2023-05-10T20:33:25;97422.19;;;14.52;100.00
36242;BME280;22283;42.748;12.732;2023-05-10T20:38:26;97425.00;;;14.50;100.00
36242;BME280;22283;42.748;12.732;2023-05-10T20:43:27;97419.44;;;14.44;100.00
36242;BME280;22283;42.748;12.732;2023-05-10T20:48:28;97429.63;;;14.66;100.00
36242;BME280;22283;42.748;12.732;2023-05-10T20:53:28;97414.06;;;14.54;100.00
36242;BME280;22283;42.748;12.732;2023-05-10T20:58:29;97408.88;;;14.34;100.00
36242;BME280;22283;42.748;12.732;2023-05-10T21:03:30;97416.47;;;14.29;100.00
36242;BME280;22283;42.748;12.732;2023-05-10T21:08:30;97432.50;;;14.19;100.00
36242;BME280;22283;42.748;12.732;2023-05-10T21:13:31;97413.38;;;13.98;100.00
36242;BME280;22283;42.748;12.732;2023-05-10T21:18:32;97426.03;;;14.04;100.00
36242;BME280;22283;42.748;12.732;2023-05-10T21:23:36;97426.41;;;14.09;100.00
36242;BME280;22283;42.748;12.732;2023-05-10T21:28:36;97434.72;;;14.06;100.00
36242;BME280;22283;42.748;12.732;2023-05-10T21:33:37;97446.03;;;14.08;100.00
36242;BME280;22283;42.748;12.732;2023-05-10T21:38:38;97423.47;;;13.94;100.00
36242;BME280;22283;42.748;12.732;2023-05-10T21:43:40;97432.41;;;13.93;100.00
36242;BME280;22283;42.748;12.732;2023-05-10T21:48:41;97459.19;;;14.10;100.00
36242;BME280;22283;42.748;12.732;2023-05-10T21:53:42;97450.75;;;14.14;100.00
36242;BME280;22283;42.748;12.732;2023-05-10T21:58:43;97453.22;;;14.25;100.00
36242;BME280;22283;42.748;12.732;2023-05-10T22:03:43;97447.25;;;14.32;100.00
36242;BME280;22283;42.748;12.732;2023-05-10T22:08:47;97459.88;;;14.47;100.00
36242;BME280;22283;42.748;12.732;2023-05-10T22:13:48;97461.13;;;14.53;100.00
36242;BME280;22283;42.748;12.732;2023-05-10T22:18:49;97462.41;;;14.49;100.00
36242;BME280;22283;42.748;12.732;2023-05-10T22:23:49;97442.31;;;14.37;100.00
36242;BME280;22283;42.748;12.732;2023-05-10T22:28:50;97450.91;;;14.31;100.00
36242;BME280;22283;42.748;12.732;2023-05-10T22:33:51;97450.53;;;14.43;100.00
36242;BME280;22283;42.748;12.732;2023-05-10T22:38:51;97456.47;;;14.37;100.00
36242;BME280;22283;42.748;12.732;2023-05-10T22:43:52;97447.25;;;14.32;100.00
36242;BME280;22283;42.748;12.732;2023-05-10T22:48:53;97449.69;;;14.25;100.00
36242;BME280;22283;42.748;12.732;2023-05-10T22:53:54;97457.53;;;14.26;100.00
36242;BME280;22283;42.748;12.732;2023-05-10T22:58:55;97448.38;;;14.29;100.00
36242;BME280;22283;42.748;12.732;2023-05-10T23:03:59;97459.50;;;14.24;100.00
36242;BME280;22283;42.748;12.732;2023-05-10T23:08:59;97470.97;;;14.25;100.00
36242;BME280;22283;42.748;12.732;2023-05-10T23:14:00;97434.81;;;14.14;100.00
36242;BME280;22283;42.748;12.732;2023-05-10T23:19:01;97432.97;;;14.33;100.00
36242;BME280;22283;42.748;12.732;2023-05-10T23:24:02;97421.34;;;14.34;100.00
36242;BME280;22283;42.748;12.732;2023-05-10T23:29:02;97441.66;;;14.35;100.00
36242;BME280;22283;42.748;12.732;2023-05-10T23:34:03;97415.03;;;14.35;100.00
36242;BME280;22283;42.748;12.732;2023-05-10T23:39:04;97407.88;;;14.17;100.00
36242;BME280;22283;42.748;12.732;2023-05-10T23:44:05;97424.38;;;14.21;100.00
36242;BME280;22283;42.748;12.732;2023-05-10T23:49:05;97428.56;;;14.23;100.00
36242;BME280;22283;42.748;12.732;2023-05-10T23:54:06;97427.56;;;14.24;100.00
36242;BME280;22283;42.748;12.732;2023-05-10T23:59:10;97437.97;;;14.36;100.00
